sensor_id;sensor_type;location;lat;lon;timestamp;pressure;altitude;pressure_sealevel;temperature;humidity
76694;BME280;69667;52.136;5.424;2023-05-29T00:00:39;102502.78;;;11.37;77.83
76694;BME280;69667;52.136;5.424;2023-05-29T00:03:07;102502.06;;;11.33;77.49
76694;BME280;69667;52.136;5.424;2023-05-29T00:05:35;102505.09;;;11.27;77.38
76694;BME280;69667;52.136;5.424;2023-05-29T00:08:02;102504.22;;;11.27;78.05
76694;BME280;69667;52.136;5.424;2023-05-29T00:10:29;102499.13;;;11.21;77.88
76694;BME280;69667;52.136;5.424;2023-05-29T00:12:57;102499.59;;;11.12;78.33
76694;BME280;69667;52.136;5.424;2023-05-29T00:15:24;102498.94;;;11.07;78.88
76694;BME280;69667;52.136;5.424;2023-05-29T00:17:51;102496.31;;;11.05;78.85
76694;BME280;69667;52.136;5.424;2023-05-29T00:20:18;102484.59;;;11.06;78.37
76694;BME280;69667;52.136;5.424;2023-05-29T00:22:45;102493.69;;;11.04;78.06
76694;BME280;69667;52.136;5.424;2023-05-29T00:25:11;102494.75;;;11.01;78.24
76694;BME280;69667;52.136;5.424;2023-05-29T00:27:38;102495.69;;;11.00;78.51
76694;BME280;69667;52.136;5.424;2023-05-29T00:30:05;102489.56;;;10.97;78.45
76694;BME280;69667;52.136;5.424;2023-05-29T00:32:32;102498.53;;;10.97;78.29
76694;BME280;69667;52.136;5.424;2023-05-29T00:34:59;102489.47;;;10.98;78.01
76694;BME280;69667;52.136;5.424;2023-05-29T00:37:26;102495.84;;;10.97;78.03
76694;BME280;69667;52.136;5.424;2023-05-29T00:39:52;102507.91;;;10.90;78.24
76694;BME280;69667;52.136;5.424;2023-05-29T00:42:19;102511.66;;;10.88;78.30
76694;BME280;69667;52.136;5.424;2023-05-29T00:44:46;102511.00;;;10.83;78.38
76694;BME280;69667;52.136;5.424;2023-05-29T00:47:13;102511.09;;;10.81;78.65
76694;BME280;69667;52.136;5.424;2023-05-29T00:49:40;102513.91;;;10.78;79.14
76694;BME280;69667;52.136;5.424;2023-05-29T00:52:07;102516.59;;;10.78;78.62
76694;BME280;69667;52.136;5.424;2023-05-29T00:54:35;102519.63;;;10.72;78.73
76694;BME280;69667;52.136;5.424;2023-05-29T00:57:03;102520.66;;;10.70;78.65
76694;BME280;69667;52.136;5.424;2023-05-29T00:59:32;102519.78;;;10.69;78.97
76694;BME280;69667;52.136;5.424;2023-05-29T01:02:01;102524.22;;;10.70;78.79
76694;BME280;69667;52.136;5.424;2023-05-29T01:04:29;102516.59;;;10.61;78.61
76694;BME280;69667;52.136;5.424;2023-05-29T01:06:55;102516.59;;;10.61;79.08
76694;BME280;69667;52.136;5.424;2023-05-29T01:09:23;102519.13;;;10.64;78.87
76694;BME280;69667;52.136;5.424;2023-05-29T01:12:00;102520.00;;;10.65;78.79
76694;BME280;69667;52.136;5.424;2023-05-29T01:15:01;102523.66;;;10.64;79.14
76694;BME280;69667;52.136;5.424;2023-05-29T01:17:39;102533.72;;;10.60;78.98
76694;BME280;69667;52.136;5.424;2023-05-29T01:28:15;102541.69;;;10.45;79.45
76694;BME280;69667;52.136;5.424;2023-05-29T01:30:46;102549.84;;;10.43;79.20
76694;BME280;69667;52.136;5.424;2023-05-29T01:33:13;102554.53;;;10.40;79.54
76694;BME280;69667;52.136;5.424;2023-05-29T01:35:41;102556.50;;;10.36;79.50
76694;BME280;69667;52.136;5.424;2023-05-29T01:38:07;102564.53;;;10.38;79.75
76694;BME280;69667;52.136;5.424;2023-05-29T01:40:34;102569.19;;;10.34;79.58
76694;BME280;69667;52.136;5.424;2023-05-29T01:43:02;102569.25;;;10.33;79.42
76694;BME280;69667;52.136;5.424;2023-05-29T01:45:29;102568.59;;;10.28;79.72
76694;BME280;69667;52.136;5.424;2023-05-29T01:47:56;102571.53;;;10.23;79.58
76694;BME280;69667;52.136;5.424;2023-05-29T01:50:23;102574.25;;;10.21;79.54
76694;BME280;69667;52.136;5.424;2023-05-29T01:52:51;102574.34;;;10.20;80.04
76694;BME280;69667;52.136;5.424;2023-05-29T01:55:17;102573.47;;;10.19;80.36
76694;BME280;69667;52.136;5.424;2023-05-29T01:57:45;102577.91;;;10.20;80.36
76694;BME280;69667;52.136;5.424;2023-05-29T02:00:12;102580.03;;;10.14;79.93
76694;BME280;69667;52.136;5.424;2023-05-29T02:02:41;102584.75;;;10.09;79.98
76694;BME280;69667;52.136;5.424;2023-05-29T02:05:08;102586.56;;;10.08;80.81
76694;BME280;69667;52.136;5.424;2023-05-29T02:07:35;102589.31;;;10.07;80.85
76694;BME280;69667;52.136;5.424;2023-05-29T02:10:05;102589.19;;;10.10;80.87
76694;BME280;69667;52.136;5.424;2023-05-29T02:12:32;102597.47;;;10.05;80.82
76694;BME280;69667;52.136;5.424;2023-05-29T02:14:58;102592.06;;;10.05;80.71
76694;BME280;69667;52.136;5.424;2023-05-29T02:17:26;102580.75;;;9.97;80.78
76694;BME280;69667;52.136;5.424;2023-05-29T02:19:53;102579.88;;;9.97;80.91
76694;BME280;69667;52.136;5.424;2023-05-29T02:22:19;102570.84;;;9.98;80.90
76694;BME280;69667;52.136;5.424;2023-05-29T02:24:46;102572.88;;;9.93;80.69
76694;BME280;69667;52.136;5.424;2023-05-29T02:27:12;102566.81;;;9.88;81.17
76694;BME280;69667;52.136;5.424;2023-05-29T02:29:40;102571.31;;;9.87;80.80
76694;BME280;69667;52.136;5.424;2023-05-29T02:32:07;102575.84;;;9.87;81.16
76694;BME280;69667;52.136;5.424;2023-05-29T02:34:34;102569.63;;;9.85;81.28
76694;BME280;69667;52.136;5.424;2023-05-29T02:37:00;102574.16;;;9.84;81.33
76694;BME280;69667;52.136;5.424;2023-05-29T02:39:27;102582.44;;;9.80;81.16
76694;BME280;69667;52.136;5.424;2023-05-29T02:41:54;102579.00;;;9.76;81.42
76694;BME280;69667;52.136;5.424;2023-05-29T02:44:21;102585.34;;;9.75;81.20
76694;BME280;69667;52.136;5.424;2023-05-29T02:46:47;102584.47;;;9.75;81.17
76694;BME280;69667;52.136;5.424;2023-05-29T02:49:18;102586.38;;;9.73;81.55
76694;BME280;69667;52.136;5.424;2023-05-29T02:51:45;102580.09;;;9.72;81.85
76694;BME280;69667;52.136;5.424;2023-05-29T02:54:11;102577.63;;;9.68;81.67
76694;BME280;69667;52.136;5.424;2023-05-29T02:56:39;102578.88;;;9.59;82.28
76694;BME280;69667;52.136;5.424;2023-05-29T02:59:06;102576.13;;;9.61;81.84
76694;BME280;69667;52.136;5.424;2023-05-29T03:01:32;102582.56;;;9.57;81.82
76694;BME280;69667;52.136;5.424;2023-05-29T03:03:59;102594.38;;;9.54;82.17
76694;BME280;69667;52.136;5.424;2023-05-29T03:06:26;102586.28;;;9.54;81.94
76694;BME280;69667;52.136;5.424;2023-05-29T03:08:52;102580.91;;;9.54;81.88
76694;BME280;69667;52.136;5.424;2023-05-29T03:11:19;102589.91;;;9.53;82.08
76694;BME280;69667;52.136;5.424;2023-05-29T03:13:47;102588.25;;;9.51;82.15
76694;BME280;69667;52.136;5.424;2023-05-29T03:16:16;102591.16;;;9.46;82.25
76694;BME280;69667;52.136;5.424;2023-05-29T03:18:44;102581.22;;;9.47;82.67
76694;BME280;69667;52.136;5.424;2023-05-29T03:21:11;102578.72;;;9.42;82.28
76694;BME280;69667;52.136;5.424;2023-05-29T03:23:38;102580.59;;;9.40;82.28
76694;BME280;69667;52.136;5.424;2023-05-29T03:26:04;102572.59;;;9.39;82.90
76694;BME280;69667;52.136;5.424;2023-05-29T03:28:33;102575.22;;;9.40;82.31
76694;BME280;69667;52.136;5.424;2023-05-29T03:31:05;102578.94;;;9.38;82.91
76694;BME280;69667;52.136;5.424;2023-05-29T03:33:31;102576.25;;;9.38;82.34
76694;BME280;69667;52.136;5.424;2023-05-29T03:36:07;102580.59;;;9.40;82.29
76694;BME280;69667;52.136;5.424;2023-05-29T03:38:34;102580.53;;;9.42;82.39
76694;BME280;69667;52.136;5.424;2023-05-29T03:41:02;102578.94;;;9.38;82.41
76694;BME280;69667;52.136;5.424;2023-05-29T03:43:28;102577.22;;;9.35;81.99
76694;BME280;69667;52.136;5.424;2023-05-29T03:45:55;102573.63;;;9.36;82.52
76694;BME280;69667;52.136;5.424;2023-05-29T03:48:23;102578.06;;;9.37;82.22
76694;BME280;69667;52.136;5.424;2023-05-29T03:50:50;102584.31;;;9.38;82.21
76694;BME280;69667;52.136;5.424;2023-05-29T03:53:23;102590.56;;;9.38;81.95
76694;BME280;69667;52.136;5.424;2023-05-29T03:55:50;102582.41;;;9.40;82.06
76694;BME280;69667;52.136;5.424;2023-05-29T03:58:16;102585.00;;;9.43;82.05
76694;BME280;69667;52.136;5.424;2023-05-29T04:00:43;102585.78;;;9.45;81.56
76694;BME280;69667;52.136;5.424;2023-05-29T04:03:12;102585.63;;;9.49;81.56
76694;BME280;69667;52.136;5.424;2023-05-29T04:05:38;102580.91;;;9.54;81.39
76694;BME280;69667;52.136;5.424;2023-05-29T04:08:05;102592.28;;;9.61;81.07
76694;BME280;69667;52.136;5.424;2023-05-29T04:10:41;102594.03;;;9.62;81.18
76694;BME280;69667;52.136;5.424;2023-05-29T04:13:08;102598.38;;;9.66;80.65
76694;BME280;69667;52.136;5.424;2023-05-29T04:15:34;102593.81;;;9.66;81.01
76694;BME280;69667;52.136;5.424;2023-05-29T04:18:02;102596.41;;;9.69;80.54
76694;BME280;69667;52.136;5.424;2023-05-29T04:20:29;102598.16;;;9.70;80.61
76694;BME280;69667;52.136;5.424;2023-05-29T04:22:56;102603.47;;;9.72;80.46
76694;BME280;69667;52.136;5.424;2023-05-29T04:25:23;102614.13;;;9.75;80.67
76694;BME280;69667;52.136;5.424;2023-05-29T04:27:49;102612.78;;;9.85;80.78
76694;BME280;69667;52.136;5.424;2023-05-29T04:30:18;102610.81;;;9.88;80.52
76694;BME280;69667;52.136;5.424;2023-05-29T04:32:47;102613.06;;;9.99;80.51
76694;BME280;69667;52.136;5.424;2023-05-29T04:35:15;102613.94;;;9.99;79.75
76694;BME280;69667;52.136;5.424;2023-05-29T04:37:50;102617.31;;;10.04;79.99
76694;BME280;69667;52.136;5.424;2023-05-29T04:40:17;102624.38;;;10.07;79.66
76694;BME280;69667;52.136;5.424;2023-05-29T04:42:44;102619.75;;;10.10;79.77
76694;BME280;69667;52.136;5.424;2023-05-29T04:45:12;102633.63;;;10.21;79.49
76694;BME280;69667;52.136;5.424;2023-05-29T04:47:39;102634.19;;;10.30;79.16
76694;BME280;69667;52.136;5.424;2023-05-29T04:50:12;102632.34;;;10.30;78.76
76694;BME280;69667;52.136;5.424;2023-05-29T04:52:42;102640.19;;;10.36;78.50
76694;BME280;69667;52.136;5.424;2023-05-29T04:55:10;102635.56;;;10.38;78.31
76694;BME280;69667;52.136;5.424;2023-05-29T04:57:37;102622.53;;;10.48;78.14
76694;BME280;69667;52.136;5.424;2023-05-29T05:00:06;102632.22;;;10.52;78.24
76694;BME280;69667;52.136;5.424;2023-05-29T05:02:36;102638.19;;;10.60;78.00
76694;BME280;69667;52.136;5.424;2023-05-29T05:05:04;102633.22;;;10.69;76.85
76694;BME280;69667;52.136;5.424;2023-05-29T05:07:31;102640.84;;;10.78;76.83
76694;BME280;69667;52.136;5.424;2023-05-29T05:09:58;102640.00;;;10.78;77.34
76694;BME280;69667;52.136;5.424;2023-05-29T05:12:26;102641.25;;;10.89;76.46
76694;BME280;69667;52.136;5.424;2023-05-29T05:14:53;102636.03;;;11.03;76.31
76694;BME280;69667;52.136;5.424;2023-05-29T05:17:19;102636.84;;;11.05;75.80
76694;BME280;69667;52.136;5.424;2023-05-29T05:19:46;102636.41;;;11.14;75.34
76694;BME280;69667;52.136;5.424;2023-05-29T05:22:15;102637.06;;;11.19;75.14
76694;BME280;69667;52.136;5.424;2023-05-29T05:24:42;102636.97;;;11.21;75.76
76694;BME280;69667;52.136;5.424;2023-05-29T05:27:09;102637.31;;;11.32;74.65
76694;BME280;69667;52.136;5.424;2023-05-29T05:29:36;102641.22;;;11.43;73.75
76694;BME280;69667;52.136;5.424;2023-05-29T05:32:03;102632.91;;;11.48;74.22
76694;BME280;69667;52.136;5.424;2023-05-29T05:34:30;102631.44;;;11.94;73.01
76694;BME280;69667;52.136;5.424;2023-05-29T05:36:57;102629.53;;;13.99;68.40
76694;BME280;69667;52.136;5.424;2023-05-29T05:39:23;102628.94;;;16.26;61.30
76694;BME280;69667;52.136;5.424;2023-05-29T05:41:51;102621.00;;;17.22;55.67
76694;BME280;69667;52.136;5.424;2023-05-29T05:44:35;102622.66;;;18.41;52.45
76694;BME280;69667;52.136;5.424;2023-05-29T05:47:08;102618.00;;;19.41;49.87
76694;BME280;69667;52.136;5.424;2023-05-29T05:49:35;102628.28;;;20.32;46.18
76694;BME280;69667;52.136;5.424;2023-05-29T05:52:02;102626.88;;;20.38;45.64
76694;BME280;69667;52.136;5.424;2023-05-29T05:54:28;102629.38;;;20.71;44.63
76694;BME280;69667;52.136;5.424;2023-05-29T05:56:55;102635.19;;;21.66;42.12
76694;BME280;69667;52.136;5.424;2023-05-29T05:59:23;102631.69;;;21.55;41.73
76694;BME280;69667;52.136;5.424;2023-05-29T06:01:49;102632.53;;;21.46;41.37
76694;BME280;69667;52.136;5.424;2023-05-29T06:04:17;102631.03;;;21.13;41.33
76694;BME280;69667;52.136;5.424;2023-05-29T06:06:45;102631.19;;;21.80;40.28
76694;BME280;69667;52.136;5.424;2023-05-29T06:09:12;102636.06;;;22.24;39.29
76694;BME280;69667;52.136;5.424;2023-05-29T06:11:40;102632.66;;;22.58;38.27
76694;BME280;69667;52.136;5.424;2023-05-29T06:14:06;102642.28;;;21.78;38.64
76694;BME280;69667;52.136;5.424;2023-05-29T06:16:34;102630.19;;;20.92;40.93
76694;BME280;69667;52.136;5.424;2023-05-29T06:19:01;102632.25;;;21.58;40.05
76694;BME280;69667;52.136;5.424;2023-05-29T06:21:32;102630.16;;;22.09;37.95
76694;BME280;69667;52.136;5.424;2023-05-29T06:23:58;102639.38;;;22.08;38.44
76694;BME280;69667;52.136;5.424;2023-05-29T06:26:26;102637.94;;;21.66;38.32
76694;BME280;69667;52.136;5.424;2023-05-29T06:28:53;102632.44;;;21.76;38.82
76694;BME280;69667;52.136;5.424;2023-05-29T06:31:20;102637.22;;;22.21;37.31
76694;BME280;69667;52.136;5.424;2023-05-29T06:33:46;102632.25;;;22.53;36.90
76694;BME280;69667;52.136;5.424;2023-05-29T06:36:13;102638.06;;;22.22;36.97
76694;BME280;69667;52.136;5.424;2023-05-29T06:38:46;102638.66;;;22.25;36.70
76694;BME280;69667;52.136;5.424;2023-05-29T06:41:12;102636.00;;;22.52;35.85
76694;BME280;69667;52.136;5.424;2023-05-29T06:43:39;102630.97;;;23.21;34.81
76694;BME280;69667;52.136;5.424;2023-05-29T06:46:09;102632.16;;;23.99;34.21
76694;BME280;69667;52.136;5.424;2023-05-29T06:48:36;102631.34;;;24.24;32.52
76694;BME280;69667;52.136;5.424;2023-05-29T06:51:03;102639.25;;;24.19;32.25
76694;BME280;69667;52.136;5.424;2023-05-29T06:53:47;102642.59;;;24.05;32.43
76694;BME280;69667;52.136;5.424;2023-05-29T06:56:14;102645.81;;;24.18;32.38
76694;BME280;69667;52.136;5.424;2023-05-29T06:58:43;102633.81;;;24.70;33.05
76694;BME280;69667;52.136;5.424;2023-05-29T07:01:10;102634.41;;;24.89;31.62
76694;BME280;69667;52.136;5.424;2023-05-29T07:03:46;102640.63;;;24.66;32.39
76694;BME280;69667;52.136;5.424;2023-05-29T07:06:13;102634.00;;;24.76;33.92
76694;BME280;69667;52.136;5.424;2023-05-29T07:08:39;102643.22;;;24.67;31.83
76694;BME280;69667;52.136;5.424;2023-05-29T07:11:09;102647.28;;;24.73;32.38
76694;BME280;69667;52.136;5.424;2023-05-29T07:13:37;102650.59;;;24.59;32.32
76694;BME280;69667;52.136;5.424;2023-05-29T07:16:03;102643.78;;;24.96;31.70
76694;BME280;69667;52.136;5.424;2023-05-29T07:18:43;102639.66;;;25.00;31.24
76694;BME280;69667;52.136;5.424;2023-05-29T07:21:10;102640.31;;;24.94;31.28
76694;BME280;69667;52.136;5.424;2023-05-29T07:23:39;102645.06;;;24.59;32.44
76694;BME280;69667;52.136;5.424;2023-05-29T07:26:09;102643.00;;;24.78;31.71
76694;BME280;69667;52.136;5.424;2023-05-29T07:28:37;102657.09;;;25.01;32.60
76694;BME280;69667;52.136;5.424;2023-05-29T07:31:04;102662.97;;;24.98;31.73
76694;BME280;69667;52.136;5.424;2023-05-29T07:33:31;102648.56;;;24.86;30.71
76694;BME280;69667;52.136;5.424;2023-05-29T07:35:58;102665.34;;;24.42;31.84
76694;BME280;69667;52.136;5.424;2023-05-29T07:38:24;102650.34;;;24.44;31.68
76694;BME280;69667;52.136;5.424;2023-05-29T07:40:51;102646.66;;;24.87;31.46
76694;BME280;69667;52.136;5.424;2023-05-29T07:43:29;102649.34;;;25.38;30.02
76694;BME280;69667;52.136;5.424;2023-05-29T07:45:59;102641.47;;;25.26;30.54
76694;BME280;69667;52.136;5.424;2023-05-29T07:48:26;102652.88;;;24.38;30.47
76694;BME280;69667;52.136;5.424;2023-05-29T07:50:53;102650.91;;;23.95;32.72
76694;BME280;69667;52.136;5.424;2023-05-29T07:53:19;102653.47;;;24.49;33.65
76694;BME280;69667;52.136;5.424;2023-05-29T07:55:47;102652.00;;;25.22;31.15
76694;BME280;69667;52.136;5.424;2023-05-29T07:58:15;102653.22;;;24.86;31.17
76694;BME280;69667;52.136;5.424;2023-05-29T08:00:44;102669.56;;;24.71;30.53
76694;BME280;69667;52.136;5.424;2023-05-29T08:03:11;102664.41;;;24.59;32.02
76694;BME280;69667;52.136;5.424;2023-05-29T08:06:10;102668.41;;;24.39;30.61
76694;BME280;69667;52.136;5.424;2023-05-29T08:08:37;102655.09;;;23.82;31.71
76694;BME280;69667;52.136;5.424;2023-05-29T08:11:04;102657.13;;;23.62;33.30
76694;BME280;69667;52.136;5.424;2023-05-29T08:13:31;102649.81;;;23.88;33.09
76694;BME280;69667;52.136;5.424;2023-05-29T08:15:58;102658.25;;;23.15;33.06
76694;BME280;69667;52.136;5.424;2023-05-29T08:18:26;102664.88;;;22.95;33.30
76694;BME280;69667;52.136;5.424;2023-05-29T08:20:53;102669.41;;;22.77;35.82
76694;BME280;69667;52.136;5.424;2023-05-29T08:23:20;102672.34;;;22.66;32.97
76694;BME280;69667;52.136;5.424;2023-05-29T08:25:47;102671.09;;;22.12;35.30
76694;BME280;69667;52.136;5.424;2023-05-29T08:28:15;102675.75;;;22.21;34.51
76694;BME280;69667;52.136;5.424;2023-05-29T08:30:41;102666.75;;;22.00;35.71
76694;BME280;69667;52.136;5.424;2023-05-29T08:33:08;102674.56;;;21.76;35.79
76694;BME280;69667;52.136;5.424;2023-05-29T08:35:35;102671.66;;;22.35;38.32
76694;BME280;69667;52.136;5.424;2023-05-29T08:38:01;102668.47;;;23.05;33.94
76694;BME280;69667;52.136;5.424;2023-05-29T08:40:28;102659.38;;;22.85;34.39
76694;BME280;69667;52.136;5.424;2023-05-29T08:43:02;102679.97;;;22.91;35.18
76694;BME280;69667;52.136;5.424;2023-05-29T08:45:33;102674.97;;;22.67;36.85
76694;BME280;69667;52.136;5.424;2023-05-29T08:48:02;102667.78;;;22.93;34.70
76694;BME280;69667;52.136;5.424;2023-05-29T08:50:28;102671.22;;;22.58;34.98
76694;BME280;69667;52.136;5.424;2023-05-29T08:52:56;102678.91;;;22.55;33.75
76694;BME280;69667;52.136;5.424;2023-05-29T08:55:23;102676.19;;;22.07;37.20
76694;BME280;69667;52.136;5.424;2023-05-29T08:57:50;102671.09;;;22.22;35.34
76694;BME280;69667;52.136;5.424;2023-05-29T09:00:17;102674.28;;;22.27;34.61
76694;BME280;69667;52.136;5.424;2023-05-29T09:02:46;102683.72;;;22.53;35.06
76694;BME280;69667;52.136;5.424;2023-05-29T09:05:13;102673.81;;;22.50;36.24
76694;BME280;69667;52.136;5.424;2023-05-29T09:07:40;102673.56;;;23.00;34.24
76694;BME280;69667;52.136;5.424;2023-05-29T09:10:10;102678.94;;;22.92;35.02
76694;BME280;69667;52.136;5.424;2023-05-29T09:12:37;102678.25;;;22.80;33.32
76694;BME280;69667;52.136;5.424;2023-05-29T09:15:16;102679.50;;;22.11;35.31
76694;BME280;69667;52.136;5.424;2023-05-29T09:17:56;102683.78;;;22.51;36.44
76694;BME280;69667;52.136;5.424;2023-05-29T09:20:25;102680.75;;;23.10;34.04
76694;BME280;69667;52.136;5.424;2023-05-29T09:22:58;102680.97;;;23.26;35.48
76694;BME280;69667;52.136;5.424;2023-05-29T09:25:27;102678.94;;;22.92;33.88
76694;BME280;69667;52.136;5.424;2023-05-29T09:27:57;102675.22;;;23.10;34.67
76694;BME280;69667;52.136;5.424;2023-05-29T09:32:59;102674.63;;;23.70;33.63
76694;BME280;69667;52.136;5.424;2023-05-29T09:35:26;102668.16;;;23.62;33.12
76694;BME280;69667;52.136;5.424;2023-05-29T09:37:53;102670.66;;;23.28;32.70
76694;BME280;69667;52.136;5.424;2023-05-29T09:40:20;102683.41;;;22.27;34.42
76694;BME280;69667;52.136;5.424;2023-05-29T09:42:46;102676.59;;;22.41;34.85
76694;BME280;69667;52.136;5.424;2023-05-29T09:45:17;102669.13;;;22.80;36.90
76694;BME280;69667;52.136;5.424;2023-05-29T09:47:44;102670.97;;;22.98;33.07
76694;BME280;69667;52.136;5.424;2023-05-29T09:50:20;102667.81;;;22.84;35.95
76694;BME280;69667;52.136;5.424;2023-05-29T09:52:51;102671.09;;;23.24;35.61
76694;BME280;69667;52.136;5.424;2023-05-29T09:55:23;102665.13;;;23.01;34.13
76694;BME280;69667;52.136;5.424;2023-05-29T09:57:49;102661.34;;;22.66;34.09
76694;BME280;69667;52.136;5.424;2023-05-29T10:00:17;102655.94;;;23.10;38.20
76694;BME280;69667;52.136;5.424;2023-05-29T10:02:43;102657.75;;;23.73;37.90
76694;BME280;69667;52.136;5.424;2023-05-29T10:05:15;102659.94;;;24.15;34.28
76694;BME280;69667;52.136;5.424;2023-05-29T10:07:46;102664.25;;;24.17;33.31
76694;BME280;69667;52.136;5.424;2023-05-29T10:10:14;102658.16;;;23.78;33.67
76694;BME280;69667;52.136;5.424;2023-05-29T10:12:59;102655.50;;;23.42;34.71
76694;BME280;69667;52.136;5.424;2023-05-29T10:15:30;102646.94;;;23.18;35.38
76694;BME280;69667;52.136;5.424;2023-05-29T10:18:03;102665.06;;;22.84;34.07
76694;BME280;69667;52.136;5.424;2023-05-29T10:20:36;102656.41;;;22.50;33.87
76694;BME280;69667;52.136;5.424;2023-05-29T10:23:05;102650.25;;;22.00;34.64
76694;BME280;69667;52.136;5.424;2023-05-29T10:25:33;102653.56;;;22.13;35.77
76694;BME280;69667;52.136;5.424;2023-05-29T10:28:02;102656.06;;;22.16;35.12
76694;BME280;69667;52.136;5.424;2023-05-29T10:30:41;102650.53;;;22.07;35.85
76694;BME280;69667;52.136;5.424;2023-05-29T10:36:09;102656.06;;;21.97;34.60
76694;BME280;69667;52.136;5.424;2023-05-29T10:38:40;102646.19;;;21.95;34.29
76694;BME280;69667;52.136;5.424;2023-05-29T10:44:01;102659.66;;;22.17;34.27
76694;BME280;69667;52.136;5.424;2023-05-29T10:47:01;102648.94;;;22.33;34.46
76694;BME280;69667;52.136;5.424;2023-05-29T10:49:28;102643.38;;;22.52;34.51
76694;BME280;69667;52.136;5.424;2023-05-29T10:51:57;102647.63;;;22.56;33.16
76694;BME280;69667;52.136;5.424;2023-05-29T10:54:25;102645.13;;;22.43;34.06
76694;BME280;69667;52.136;5.424;2023-05-29T10:56:55;102642.63;;;23.06;32.24
76694;BME280;69667;52.136;5.424;2023-05-29T10:59:21;102642.06;;;22.66;32.81
76694;BME280;69667;52.136;5.424;2023-05-29T11:01:51;102646.84;;;22.73;33.11
76694;BME280;69667;52.136;5.424;2023-05-29T11:06:51;102637.59;;;22.45;37.38
76694;BME280;69667;52.136;5.424;2023-05-29T11:14:53;102644.03;;;23.46;33.23
76694;BME280;69667;52.136;5.424;2023-05-29T11:17:43;102640.78;;;23.24;32.29
76694;BME280;69667;52.136;5.424;2023-05-29T11:20:33;102644.38;;;22.70;31.74
76694;BME280;69667;52.136;5.424;2023-05-29T11:23:03;102641.38;;;22.54;33.84
76694;BME280;69667;52.136;5.424;2023-05-29T11:25:35;102641.25;;;22.27;32.99
76694;BME280;69667;52.136;5.424;2023-05-29T11:28:04;102625.56;;;22.66;33.81
76694;BME280;69667;52.136;5.424;2023-05-29T11:30:42;102642.84;;;22.20;33.81
76694;BME280;69667;52.136;5.424;2023-05-29T11:33:23;102639.06;;;22.40;34.08
76694;BME280;69667;52.136;5.424;2023-05-29T11:35:57;102629.25;;;22.28;32.70
76694;BME280;69667;52.136;5.424;2023-05-29T11:38:28;102629.91;;;22.49;32.44
76694;BME280;69667;52.136;5.424;2023-05-29T11:40:55;102636.72;;;22.64;35.38
76694;BME280;69667;52.136;5.424;2023-05-29T11:43:22;102639.53;;;22.26;31.78
76694;BME280;69667;52.136;5.424;2023-05-29T11:45:49;102631.00;;;22.10;33.35
76694;BME280;69667;52.136;5.424;2023-05-29T11:48:15;102639.41;;;22.18;33.72
76694;BME280;69667;52.136;5.424;2023-05-29T11:50:42;102638.97;;;21.94;34.23
76694;BME280;69667;52.136;5.424;2023-05-29T11:53:11;102638.84;;;21.86;33.80
76694;BME280;69667;52.136;5.424;2023-05-29T11:55:38;102637.38;;;21.82;36.31
76694;BME280;69667;52.136;5.424;2023-05-29T11:58:06;102638.69;;;21.97;37.94
76694;BME280;69667;52.136;5.424;2023-05-29T12:00:34;102627.22;;;22.20;36.06
76694;BME280;69667;52.136;5.424;2023-05-29T12:03:02;102630.28;;;22.08;36.58
76694;BME280;69667;52.136;5.424;2023-05-29T12:05:44;102626.50;;;22.18;36.73
76694;BME280;69667;52.136;5.424;2023-05-29T12:08:11;102634.91;;;21.88;38.39
76694;BME280;69667;52.136;5.424;2023-05-29T12:10:46;102629.69;;;21.76;35.76
76694;BME280;69667;52.136;5.424;2023-05-29T12:13:14;102640.25;;;21.71;35.12
76694;BME280;69667;52.136;5.424;2023-05-29T12:15:44;102629.66;;;21.47;35.23
76694;BME280;69667;52.136;5.424;2023-05-29T12:18:11;102627.88;;;21.36;36.13
76694;BME280;69667;52.136;5.424;2023-05-29T12:20:38;102630.94;;;21.43;35.26
76694;BME280;69667;52.136;5.424;2023-05-29T12:23:05;102635.16;;;21.57;34.59
76694;BME280;69667;52.136;5.424;2023-05-29T12:25:34;102632.50;;;21.26;36.97
76694;BME280;69667;52.136;5.424;2023-05-29T12:28:03;102628.09;;;21.05;37.41
76694;BME280;69667;52.136;5.424;2023-05-29T12:30:30;102638.56;;;20.90;37.88
76694;BME280;69667;52.136;5.424;2023-05-29T12:32:59;102639.97;;;20.55;36.77
76694;BME280;69667;52.136;5.424;2023-05-29T12:35:29;102634.06;;;20.29;36.72
76694;BME280;69667;52.136;5.424;2023-05-29T12:37:57;102619.06;;;20.63;38.57
76694;BME280;69667;52.136;5.424;2023-05-29T12:40:26;102625.72;;;20.91;36.09
76694;BME280;69667;52.136;5.424;2023-05-29T12:43:00;102615.31;;;21.34;35.87
76694;BME280;69667;52.136;5.424;2023-05-29T12:45:30;102631.91;;;21.91;35.75
76694;BME280;69667;52.136;5.424;2023-05-29T12:47:58;102622.34;;;21.86;34.54
76694;BME280;69667;52.136;5.424;2023-05-29T12:50:30;102621.75;;;21.82;35.28
76694;BME280;69667;52.136;5.424;2023-05-29T12:53:04;102628.88;;;21.85;35.87
76694;BME280;69667;52.136;5.424;2023-05-29T12:55:33;102611.44;;;21.46;36.16
76694;BME280;69667;52.136;5.424;2023-05-29T12:58:07;102625.22;;;21.94;37.47
76694;BME280;69667;52.136;5.424;2023-05-29T13:00:35;102626.94;;;21.76;37.89
76694;BME280;69667;52.136;5.424;2023-05-29T13:03:02;102630.28;;;21.70;35.59
76694;BME280;69667;52.136;5.424;2023-05-29T13:05:29;102630.03;;;21.23;33.81
76694;BME280;69667;52.136;5.424;2023-05-29T13:07:56;102626.09;;;20.86;34.37
76694;BME280;69667;52.136;5.424;2023-05-29T13:10:25;102611.91;;;21.02;34.73
76694;BME280;69667;52.136;5.424;2023-05-29T13:12:53;102628.41;;;21.11;36.01
76694;BME280;69667;52.136;5.424;2023-05-29T13:15:22;102633.19;;;20.79;36.61
76694;BME280;69667;52.136;5.424;2023-05-29T13:17:52;102625.91;;;20.69;36.10
76694;BME280;69667;52.136;5.424;2023-05-29T13:20:19;102619.63;;;20.87;39.23
76694;BME280;69667;52.136;5.424;2023-05-29T13:22:47;102617.91;;;21.35;37.63
76694;BME280;69667;52.136;5.424;2023-05-29T13:25:15;102626.75;;;21.58;39.60